sensor_id;sensor_type;location;lat;lon;timestamp;P1;durP1;ratioP1;P2;durP2;ratioP2
74528;SDS011;63009;52.584;5.932;2022-10-22T00:00:11;10.63;;;4.03;;
74528;SDS011;63009;52.584;5.932;2022-10-22T00:02:39;9.73;;;3.92;;
74528;SDS011;63009;52.584;5.932;2022-10-22T00:05:05;9.75;;;4.15;;
74528;SDS011;63009;52.584;5.932;2022-10-22T00:07:31;10.77;;;4.03;;
74528;SDS011;63009;52.584;5.932;2022-10-22T00:09:56;9.60;;;3.60;;
74528;SDS011;63009;52.584;5.932;2022-10-22T00:12:22;8.93;;;3.80;;
74528;SDS011;63009;52.584;5.932;2022-10-22T00:14:47;10.02;;;3.83;;
74528;SDS011;63009;52.584;5.932;2022-10-22T00:17:13;9.77;;;3.95;;
74528;SDS011;63009;52.584;5.932;2022-10-22T00:19:38;10.87;;;3.90;;
74528;SDS011;63009;52.584;5.932;2022-10-22T00:22:04;9.05;;;3.78;;
74528;SDS011;63009;52.584;5.932;2022-10-22T00:24:31;9.63;;;4.47;;
74528;SDS011;63009;52.584;5.932;2022-10-22T00:26:57;11.65;;;5.22;;
74528;SDS011;63009;52.584;5.932;2022-10-22T00:29:22;14.43;;;5.97;;
74528;SDS011;63009;52.584;5.932;2022-10-22T00:31:47;17.13;;;6.47;;
74528;SDS011;63009;52.584;5.932;2022-10-22T00:34:16;12.68;;;6.20;;
74528;SDS011;63009;52.584;5.932;2022-10-22T00:36:46;14.23;;;5.40;;
74528;SDS011;63009;52.584;5.932;2022-10-22T00:39:13;11.30;;;5.00;;
74528;SDS011;63009;52.584;5.932;2022-10-22T00:41:40;10.50;;;4.43;;
74528;SDS011;63009;52.584;5.932;2022-10-22T00:44:06;9.18;;;4.13;;
74528;SDS011;63009;52.584;5.932;2022-10-22T00:46:32;9.35;;;3.65;;
74528;SDS011;63009;52.584;5.932;2022-10-22T00:48:58;10.40;;;3.93;;
74528;SDS011;63009;52.584;5.932;2022-10-22T00:51:27;13.50;;;3.95;;
74528;SDS011;63009;52.584;5.932;2022-10-22T00:53:56;8.85;;;3.33;;
74528;SDS011;63009;52.584;5.932;2022-10-22T00:56:27;8.98;;;3.65;;
74528;SDS011;63009;52.584;5.932;2022-10-22T00:58:53;9.75;;;3.67;;
74528;SDS011;63009;52.584;5.932;2022-10-22T01:01:22;8.32;;;3.10;;
74528;SDS011;63009;52.584;5.932;2022-10-22T01:03:50;9.02;;;3.85;;
74528;SDS011;63009;52.584;5.932;2022-10-22T01:06:26;10.55;;;3.90;;
74528;SDS011;63009;52.584;5.932;2022-10-22T01:08:59;10.00;;;3.42;;
74528;SDS011;63009;52.584;5.932;2022-10-22T01:14:21;8.70;;;3.30;;
74528;SDS011;63009;52.584;5.932;2022-10-22T01:22:11;8.18;;;3.30;;
74528;SDS011;63009;52.584;5.932;2022-10-22T01:27:25;9.63;;;4.00;;
74528;SDS011;63009;52.584;5.932;2022-10-22T01:29:59;11.15;;;3.95;;
74528;SDS011;63009;52.584;5.932;2022-10-22T01:32:30;9.77;;;3.72;;
74528;SDS011;63009;52.584;5.932;2022-10-22T01:35:03;8.45;;;3.72;;
74528;SDS011;63009;52.584;5.932;2022-10-22T01:37:31;10.57;;;3.78;;
74528;SDS011;63009;52.584;5.932;2022-10-22T01:40:02;10.80;;;3.45;;
74528;SDS011;63009;52.584;5.932;2022-10-22T01:42:30;10.50;;;4.13;;
74528;SDS011;63009;52.584;5.932;2022-10-22T01:44:55;11.80;;;4.07;;
74528;SDS011;63009;52.584;5.932;2022-10-22T01:56:15;10.00;;;4.10;;
74528;SDS011;63009;52.584;5.932;2022-10-22T02:07:13;10.40;;;4.45;;
74528;SDS011;63009;52.584;5.932;2022-10-22T02:09:41;10.73;;;4.60;;
74528;SDS011;63009;52.584;5.932;2022-10-22T02:12:08;9.82;;;4.70;;
74528;SDS011;63009;52.584;5.932;2022-10-22T02:14:36;10.27;;;4.93;;
74528;SDS011;63009;52.584;5.932;2022-10-22T02:17:04;12.50;;;4.95;;
74528;SDS011;63009;52.584;5.932;2022-10-22T02:19:38;9.68;;;4.45;;
74528;SDS011;63009;52.584;5.932;2022-10-22T02:22:08;12.10;;;4.95;;
74528;SDS011;63009;52.584;5.932;2022-10-22T02:24:33;9.88;;;4.55;;
74528;SDS011;63009;52.584;5.932;2022-10-22T02:27:06;11.68;;;4.70;;
74528;SDS011;63009;52.584;5.932;2022-10-22T02:30:26;11.20;;;5.10;;
74528;SDS011;63009;52.584;5.932;2022-10-22T02:35:21;12.20;;;5.43;;
74528;SDS011;63009;52.584;5.932;2022-10-22T02:37:50;12.45;;;5.75;;
74528;SDS011;63009;52.584;5.932;2022-10-22T02:40:17;13.70;;;5.57;;
74528;SDS011;63009;52.584;5.932;2022-10-22T02:42:45;11.75;;;4.70;;
74528;SDS011;63009;52.584;5.932;2022-10-22T02:45:12;12.20;;;5.22;;
74528;SDS011;63009;52.584;5.932;2022-10-22T02:47:38;11.88;;;4.88;;
74528;SDS011;63009;52.584;5.932;2022-10-22T02:50:03;12.13;;;4.93;;
74528;SDS011;63009;52.584;5.932;2022-10-22T02:52:29;11.77;;;5.00;;
74528;SDS011;63009;52.584;5.932;2022-10-22T02:54:54;10.53;;;4.43;;
74528;SDS011;63009;52.584;5.932;2022-10-22T02:57:20;10.53;;;4.50;;
74528;SDS011;63009;52.584;5.932;2022-10-22T02:59:45;12.23;;;4.87;;
74528;SDS011;63009;52.584;5.932;2022-10-22T03:02:10;9.60;;;4.47;;
74528;SDS011;63009;52.584;5.932;2022-10-22T03:04:35;11.83;;;4.90;;
74528;SDS011;63009;52.584;5.932;2022-10-22T03:07:01;13.40;;;4.70;;
74528;SDS011;63009;52.584;5.932;2022-10-22T03:09:26;12.20;;;4.80;;
74528;SDS011;63009;52.584;5.932;2022-10-22T03:11:51;11.38;;;5.47;;
74528;SDS011;63009;52.584;5.932;2022-10-22T03:14:17;11.55;;;5.20;;
74528;SDS011;63009;52.584;5.932;2022-10-22T03:16:42;12.23;;;4.85;;
74528;SDS011;63009;52.584;5.932;2022-10-22T03:19:07;11.82;;;5.07;;
74528;SDS011;63009;52.584;5.932;2022-10-22T03:21:33;11.17;;;5.30;;
74528;SDS011;63009;52.584;5.932;2022-10-22T03:24:04;10.65;;;4.45;;
74528;SDS011;63009;52.584;5.932;2022-10-22T03:26:34;11.18;;;4.93;;
74528;SDS011;63009;52.584;5.932;2022-10-22T03:29:01;14.63;;;4.72;;
74528;SDS011;63009;52.584;5.932;2022-10-22T03:31:26;10.80;;;4.72;;
74528;SDS011;63009;52.584;5.932;2022-10-22T03:33:52;12.73;;;5.15;;
74528;SDS011;63009;52.584;5.932;2022-10-22T03:36:17;12.43;;;5.30;;
74528;SDS011;63009;52.584;5.932;2022-10-22T03:38:42;11.03;;;4.90;;
74528;SDS011;63009;52.584;5.932;2022-10-22T03:41:08;11.30;;;5.07;;
74528;SDS011;63009;52.584;5.932;2022-10-22T03:43:34;11.10;;;4.70;;
74528;SDS011;63009;52.584;5.932;2022-10-22T03:46:00;12.45;;;4.70;;
74528;SDS011;63009;52.584;5.932;2022-10-22T03:48:25;12.33;;;4.93;;
74528;SDS011;63009;52.584;5.932;2022-10-22T03:50:51;10.93;;;5.47;;
74528;SDS011;63009;52.584;5.932;2022-10-22T03:53:16;9.57;;;4.27;;
74528;SDS011;63009;52.584;5.932;2022-10-22T03:55:41;10.30;;;4.47;;
74528;SDS011;63009;52.584;5.932;2022-10-22T03:58:07;12.25;;;5.32;;
74528;SDS011;63009;52.584;5.932;2022-10-22T04:00:33;12.07;;;4.93;;
74528;SDS011;63009;52.584;5.932;2022-10-22T04:02:59;12.55;;;5.38;;
74528;SDS011;63009;52.584;5.932;2022-10-22T04:05:24;11.60;;;5.20;;
74528;SDS011;63009;52.584;5.932;2022-10-22T04:07:49;11.37;;;5.50;;
74528;SDS011;63009;52.584;5.932;2022-10-22T04:10:15;11.03;;;5.27;;
74528;SDS011;63009;52.584;5.932;2022-10-22T04:12:40;12.00;;;5.73;;
74528;SDS011;63009;52.584;5.932;2022-10-22T04:15:05;13.17;;;5.67;;
74528;SDS011;63009;52.584;5.932;2022-10-22T04:17:32;11.73;;;5.63;;
74528;SDS011;63009;52.584;5.932;2022-10-22T04:20:01;10.15;;;4.97;;
74528;SDS011;63009;52.584;5.932;2022-10-22T04:22:27;13.40;;;5.30;;
74528;SDS011;63009;52.584;5.932;2022-10-22T04:24:52;12.90;;;5.22;;
74528;SDS011;63009;52.584;5.932;2022-10-22T04:27:17;16.47;;;6.57;;
74528;SDS011;63009;52.584;5.932;2022-10-22T04:29:43;12.33;;;5.50;;
74528;SDS011;63009;52.584;5.932;2022-10-22T04:32:08;11.20;;;6.00;;
74528;SDS011;63009;52.584;5.932;2022-10-22T04:34:33;12.93;;;5.83;;
74528;SDS011;63009;52.584;5.932;2022-10-22T04:36:58;12.87;;;4.93;;
74528;SDS011;63009;52.584;5.932;2022-10-22T04:39:24;13.93;;;5.57;;
74528;SDS011;63009;52.584;5.932;2022-10-22T04:41:49;15.97;;;5.27;;
74528;SDS011;63009;52.584;5.932;2022-10-22T04:44:14;13.73;;;5.90;;
74528;SDS011;63009;52.584;5.932;2022-10-22T04:46:40;12.23;;;5.57;;
74528;SDS011;63009;52.584;5.932;2022-10-22T04:49:05;13.48;;;5.75;;
74528;SDS011;63009;52.584;5.932;2022-10-22T04:51:31;12.77;;;5.90;;
74528;SDS011;63009;52.584;5.932;2022-10-22T04:53:56;12.20;;;4.97;;
74528;SDS011;63009;52.584;5.932;2022-10-22T04:56:22;12.70;;;5.07;;
74528;SDS011;63009;52.584;5.932;2022-10-22T04:58:51;11.75;;;5.13;;
74528;SDS011;63009;52.584;5.932;2022-10-22T05:01:37;13.18;;;5.72;;
74528;SDS011;63009;52.584;5.932;2022-10-22T05:04:05;14.77;;;5.57;;
74528;SDS011;63009;52.584;5.932;2022-10-22T05:06:32;11.23;;;5.07;;
74528;SDS011;63009;52.584;5.932;2022-10-22T05:09:00;11.45;;;4.93;;
74528;SDS011;63009;52.584;5.932;2022-10-22T05:11:28;12.90;;;4.78;;
74528;SDS011;63009;52.584;5.932;2022-10-22T05:13:55;10.23;;;5.00;;
74528;SDS011;63009;52.584;5.932;2022-10-22T05:16:22;13.40;;;5.07;;
74528;SDS011;63009;52.584;5.932;2022-10-22T05:18:48;13.05;;;4.72;;
74528;SDS011;63009;52.584;5.932;2022-10-22T05:21:14;12.87;;;5.00;;
74528;SDS011;63009;52.584;5.932;2022-10-22T05:26:07;11.60;;;4.28;;
74528;SDS011;63009;52.584;5.932;2022-10-22T05:28:35;13.50;;;4.55;;
74528;SDS011;63009;52.584;5.932;2022-10-22T05:31:01;11.98;;;5.07;;
74528;SDS011;63009;52.584;5.932;2022-10-22T05:33:27;12.23;;;4.93;;
74528;SDS011;63009;52.584;5.932;2022-10-22T05:35:54;13.27;;;4.85;;
74528;SDS011;63009;52.584;5.932;2022-10-22T05:38:20;11.80;;;4.45;;
74528;SDS011;63009;52.584;5.932;2022-10-22T05:40:45;12.43;;;4.75;;
74528;SDS011;63009;52.584;5.932;2022-10-22T05:43:11;10.13;;;4.13;;
74528;SDS011;63009;52.584;5.932;2022-10-22T05:45:37;13.35;;;4.90;;
74528;SDS011;63009;52.584;5.932;2022-10-22T05:48:03;10.52;;;4.30;;
74528;SDS011;63009;52.584;5.932;2022-10-22T05:50:29;11.02;;;3.92;;
74528;SDS011;63009;52.584;5.932;2022-10-22T05:52:55;10.25;;;4.10;;
74528;SDS011;63009;52.584;5.932;2022-10-22T05:55:21;9.95;;;4.78;;
74528;SDS011;63009;52.584;5.932;2022-10-22T05:57:46;13.05;;;4.63;;
74528;SDS011;63009;52.584;5.932;2022-10-22T06:00:14;10.95;;;3.78;;
74528;SDS011;63009;52.584;5.932;2022-10-22T06:02:40;10.88;;;4.68;;
74528;SDS011;63009;52.584;5.932;2022-10-22T06:05:05;11.05;;;4.63;;
74528;SDS011;63009;52.584;5.932;2022-10-22T06:07:31;14.77;;;4.50;;
74528;SDS011;63009;52.584;5.932;2022-10-22T06:09:57;11.48;;;4.60;;
74528;SDS011;63009;52.584;5.932;2022-10-22T06:12:23;9.18;;;4.22;;
74528;SDS011;63009;52.584;5.932;2022-10-22T06:14:48;12.30;;;4.40;;
74528;SDS011;63009;52.584;5.932;2022-10-22T06:17:13;13.13;;;4.53;;
74528;SDS011;63009;52.584;5.932;2022-10-22T06:19:39;12.73;;;4.33;;
74528;SDS011;63009;52.584;5.932;2022-10-22T06:22:04;15.23;;;4.17;;
74528;SDS011;63009;52.584;5.932;2022-10-22T06:24:29;12.60;;;4.50;;
74528;SDS011;63009;52.584;5.932;2022-10-22T06:26:55;11.23;;;4.72;;
74528;SDS011;63009;52.584;5.932;2022-10-22T06:29:20;13.95;;;5.13;;
74528;SDS011;63009;52.584;5.932;2022-10-22T06:31:45;10.70;;;4.07;;
74528;SDS011;63009;52.584;5.932;2022-10-22T06:34:11;13.77;;;4.03;;
74528;SDS011;63009;52.584;5.932;2022-10-22T06:36:38;14.60;;;4.88;;
74528;SDS011;63009;52.584;5.932;2022-10-22T06:39:06;14.00;;;4.53;;
74528;SDS011;63009;52.584;5.932;2022-10-22T06:41:34;13.55;;;4.75;;
74528;SDS011;63009;52.584;5.932;2022-10-22T06:43:59;13.93;;;3.80;;
74528;SDS011;63009;52.584;5.932;2022-10-22T06:46:25;12.33;;;4.07;;
74528;SDS011;63009;52.584;5.932;2022-10-22T06:48:51;13.70;;;4.60;;
74528;SDS011;63009;52.584;5.932;2022-10-22T06:51:19;10.68;;;4.10;;
74528;SDS011;63009;52.584;5.932;2022-10-22T06:53:45;9.95;;;4.10;;
74528;SDS011;63009;52.584;5.932;2022-10-22T06:56:12;11.65;;;4.60;;
74528;SDS011;63009;52.584;5.932;2022-10-22T06:58:39;12.18;;;3.72;;
74528;SDS011;63009;52.584;5.932;2022-10-22T07:01:05;12.07;;;5.03;;
74528;SDS011;63009;52.584;5.932;2022-10-22T07:05:58;10.20;;;3.33;;
74528;SDS011;63009;52.584;5.932;2022-10-22T07:08:25;10.32;;;4.00;;
74528;SDS011;63009;52.584;5.932;2022-10-22T07:10:50;11.90;;;4.00;;
74528;SDS011;63009;52.584;5.932;2022-10-22T07:13:15;13.20;;;4.30;;
74528;SDS011;63009;52.584;5.932;2022-10-22T07:15:41;13.00;;;4.35;;
74528;SDS011;63009;52.584;5.932;2022-10-22T07:18:06;9.70;;;4.33;;
74528;SDS011;63009;52.584;5.932;2022-10-22T07:20:31;10.37;;;4.17;;
74528;SDS011;63009;52.584;5.932;2022-10-22T07:22:56;12.73;;;4.27;;
74528;SDS011;63009;52.584;5.932;2022-10-22T07:25:21;11.33;;;4.10;;
74528;SDS011;63009;52.584;5.932;2022-10-22T07:27:47;14.90;;;4.20;;
74528;SDS011;63009;52.584;5.932;2022-10-22T07:30:12;11.57;;;4.03;;
74528;SDS011;63009;52.584;5.932;2022-10-22T07:32:37;14.57;;;5.25;;
74528;SDS011;63009;52.584;5.932;2022-10-22T07:35:03;12.33;;;4.00;;
74528;SDS011;63009;52.584;5.932;2022-10-22T07:37:28;11.60;;;4.18;;
74528;SDS011;63009;52.584;5.932;2022-10-22T07:39:54;14.97;;;4.20;;
74528;SDS011;63009;52.584;5.932;2022-10-22T07:42:19;11.97;;;3.77;;
74528;SDS011;63009;52.584;5.932;2022-10-22T07:44:44;13.40;;;3.93;;
74528;SDS011;63009;52.584;5.932;2022-10-22T07:47:09;9.40;;;3.80;;
74528;SDS011;63009;52.584;5.932;2022-10-22T07:49:35;16.80;;;4.03;;
74528;SDS011;63009;52.584;5.932;2022-10-22T07:52:00;12.67;;;3.97;;
74528;SDS011;63009;52.584;5.932;2022-10-22T07:54:25;12.60;;;3.70;;
74528;SDS011;63009;52.584;5.932;2022-10-22T07:56:51;10.50;;;3.35;;
74528;SDS011;63009;52.584;5.932;2022-10-22T07:59:16;10.73;;;3.80;;
74528;SDS011;63009;52.584;5.932;2022-10-22T08:01:41;11.67;;;3.90;;
74528;SDS011;63009;52.584;5.932;2022-10-22T08:04:07;12.30;;;4.13;;
74528;SDS011;63009;52.584;5.932;2022-10-22T08:06:33;10.43;;;3.40;;
74528;SDS011;63009;52.584;5.932;2022-10-22T08:09:00;8.85;;;3.08;;
74528;SDS011;63009;52.584;5.932;2022-10-22T08:11:25;9.27;;;3.23;;
74528;SDS011;63009;52.584;5.932;2022-10-22T08:13:51;12.98;;;3.47;;
74528;SDS011;63009;52.584;5.932;2022-10-22T08:16:16;10.65;;;3.47;;
74528;SDS011;63009;52.584;5.932;2022-10-22T08:18:42;11.05;;;3.38;;
74528;SDS011;63009;52.584;5.932;2022-10-22T08:21:08;10.52;;;3.30;;
74528;SDS011;63009;52.584;5.932;2022-10-22T08:23:33;9.32;;;2.95;;
74528;SDS011;63009;52.584;5.932;2022-10-22T08:25:59;12.02;;;3.47;;
74528;SDS011;63009;52.584;5.932;2022-10-22T08:28:24;11.80;;;3.10;;
74528;SDS011;63009;52.584;5.932;2022-10-22T08:33:17;12.17;;;3.07;;
74528;SDS011;63009;52.584;5.932;2022-10-22T08:35:46;14.63;;;4.20;;
74528;SDS011;63009;52.584;5.932;2022-10-22T08:38:13;10.73;;;2.95;;
74528;SDS011;63009;52.584;5.932;2022-10-22T08:40:38;13.43;;;3.95;;
74528;SDS011;63009;52.584;5.932;2022-10-22T08:43:08;8.20;;;3.05;;
74528;SDS011;63009;52.584;5.932;2022-10-22T08:45:58;11.88;;;2.97;;
74528;SDS011;63009;52.584;5.932;2022-10-22T08:51:18;10.07;;;2.63;;
74528;SDS011;63009;52.584;5.932;2022-10-22T08:54:00;11.25;;;3.00;;
74528;SDS011;63009;52.584;5.932;2022-10-22T08:56:29;8.77;;;2.33;;
74528;SDS011;63009;52.584;5.932;2022-10-22T09:01:37;11.73;;;2.70;;
74528;SDS011;63009;52.584;5.932;2022-10-22T09:04:10;8.98;;;2.95;;
74528;SDS011;63009;52.584;5.932;2022-10-22T09:06:49;9.82;;;2.83;;
74528;SDS011;63009;52.584;5.932;2022-10-22T09:09:15;12.05;;;2.65;;
74528;SDS011;63009;52.584;5.932;2022-10-22T09:11:44;9.77;;;2.50;;
74528;SDS011;63009;52.584;5.932;2022-10-22T09:14:15;10.32;;;2.85;;
74528;SDS011;63009;52.584;5.932;2022-10-22T09:19:43;12.38;;;3.20;;
74528;SDS011;63009;52.584;5.932;2022-10-22T09:25:35;13.02;;;4.53;;
74528;SDS011;63009;52.584;5.932;2022-10-22T09:27:55;15.18;;;3.28;;
74528;SDS011;63009;52.584;5.932;2022-10-22T09:30:25;9.10;;;3.17;;
74528;SDS011;63009;52.584;5.932;2022-10-22T09:32:54;14.68;;;4.03;;
74528;SDS011;63009;52.584;5.932;2022-10-22T09:35:25;8.93;;;3.00;;
74528;SDS011;63009;52.584;5.932;2022-10-22T09:37:52;10.43;;;2.85;;
74528;SDS011;63009;52.584;5.932;2022-10-22T09:40:19;10.88;;;3.60;;
74528;SDS011;63009;52.584;5.932;2022-10-22T09:42:45;9.48;;;3.10;;
74528;SDS011;63009;52.584;5.932;2022-10-22T09:45:20;10.00;;;3.80;;
74528;SDS011;63009;52.584;5.932;2022-10-22T09:47:48;10.05;;;3.72;;
74528;SDS011;63009;52.584;5.932;2022-10-22T09:52:53;15.10;;;4.63;;
74528;SDS011;63009;52.584;5.932;2022-10-22T09:55:23;11.32;;;3.95;;
74528;SDS011;63009;52.584;5.932;2022-10-22T09:57:53;10.48;;;4.10;;
74528;SDS011;63009;52.584;5.932;2022-10-22T10:00:20;13.70;;;4.40;;
74528;SDS011;63009;52.584;5.932;2022-10-22T10:02:52;14.50;;;3.78;;
74528;SDS011;63009;52.584;5.932;2022-10-22T10:05:19;13.32;;;4.22;;
74528;SDS011;63009;52.584;5.932;2022-10-22T10:07:50;13.90;;;3.88;;
74528;SDS011;63009;52.584;5.932;2022-10-22T10:10:16;11.13;;;3.83;;
74528;SDS011;63009;52.584;5.932;2022-10-22T10:12:55;10.73;;;4.05;;
74528;SDS011;63009;52.584;5.932;2022-10-22T10:15:44;13.93;;;3.78;;
74528;SDS011;63009;52.584;5.932;2022-10-22T10:35:14;12.88;;;3.75;;
74528;SDS011;63009;52.584;5.932;2022-10-22T10:37:42;9.75;;;3.53;;
74528;SDS011;63009;52.584;5.932;2022-10-22T10:42:59;13.68;;;4.07;;
74528;SDS011;63009;52.584;5.932;2022-10-22T10:45:50;11.43;;;3.33;;
74528;SDS011;63009;52.584;5.932;2022-10-22T10:54:03;12.82;;;3.95;;
74528;SDS011;63009;52.584;5.932;2022-10-22T10:56:46;13.43;;;3.90;;
74528;SDS011;63009;52.584;5.932;2022-10-22T10:59:17;13.20;;;4.22;;
74528;SDS011;63009;52.584;5.932;2022-10-22T11:08:07;14.60;;;3.53;;
74528;SDS011;63009;52.584;5.932;2022-10-22T11:10:36;9.27;;;3.13;;
74528;SDS011;63009;52.584;5.932;2022-10-22T11:13:07;12.23;;;3.30;;
74528;SDS011;63009;52.584;5.932;2022-10-22T11:16:15;12.20;;;3.15;;
74528;SDS011;63009;52.584;5.932;2022-10-22T11:26:41;9.67;;;2.90;;
74528;SDS011;63009;52.584;5.932;2022-10-22T11:29:14;10.85;;;3.35;;
74528;SDS011;63009;52.584;5.932;2022-10-22T11:31:46;13.70;;;3.30;;
74528;SDS011;63009;52.584;5.932;2022-10-22T11:35:14;9.80;;;3.53;;
74528;SDS011;63009;52.584;5.932;2022-10-22T11:37:13;9.07;;;3.22;;
74528;SDS011;63009;52.584;5.932;2022-10-22T11:42:19;11.60;;;3.13;;
74528;SDS011;63009;52.584;5.932;2022-10-22T11:44:47;9.32;;;2.60;;
74528;SDS011;63009;52.584;5.932;2022-10-22T11:47:19;11.32;;;3.30;;
74528;SDS011;63009;52.584;5.932;2022-10-22T11:49:56;12.98;;;2.90;;
74528;SDS011;63009;52.584;5.932;2022-10-22T11:52:36;12.60;;;2.67;;
74528;SDS011;63009;52.584;5.932;2022-10-22T11:55:26;15.02;;;3.03;;
74528;SDS011;63009;52.584;5.932;2022-10-22T11:58:00;8.75;;;2.60;;
74528;SDS011;63009;52.584;5.932;2022-10-22T12:00:40;12.05;;;2.85;;
74528;SDS011;63009;52.584;5.932;2022-10-22T12:03:16;9.57;;;2.97;;
74528;SDS011;63009;52.584;5.932;2022-10-22T12:11:19;11.83;;;2.97;;
74528;SDS011;63009;52.584;5.932;2022-10-22T12:16:56;10.20;;;2.85;;
74528;SDS011;63009;52.584;5.932;2022-10-22T12:19:31;11.35;;;3.38;;
74528;SDS011;63009;52.584;5.932;2022-10-22T12:22:18;9.05;;;2.58;;
74528;SDS011;63009;52.584;5.932;2022-10-22T12:24:47;8.45;;;2.85;;
74528;SDS011;63009;52.584;5.932;2022-10-22T12:27:18;9.30;;;3.10;;
74528;SDS011;63009;52.584;5.932;2022-10-22T12:30:01;11.65;;;3.72;;
74528;SDS011;63009;52.584;5.932;2022-10-22T12:32:40;22.52;;;3.38;;
74528;SDS011;63009;52.584;5.932;2022-10-22T12:35:07;12.57;;;3.07;;
74528;SDS011;63009;52.584;5.932;2022-10-22T12:37:38;9.02;;;2.95;;
74528;SDS011;63009;52.584;5.932;2022-10-22T12:40:47;9.43;;;2.50;;
74528;SDS011;63009;52.584;5.932;2022-10-22T12:42:54;9.65;;;2.50;;
74528;SDS011;63009;52.584;5.932;2022-10-22T12:45:25;9.50;;;3.10;;
74528;SDS011;63009;52.584;5.932;2022-10-22T12:47:57;7.95;;;2.60;;
74528;SDS011;63009;52.584;5.932;2022-10-22T12:50:31;11.38;;;2.80;;
74528;SDS011;63009;52.584;5.932;2022-10-22T12:53:01;6.78;;;2.20;;
74528;SDS011;63009;52.584;5.932;2022-10-22T12:55:27;12.88;;;2.95;;
74528;SDS011;63009;52.584;5.932;2022-10-22T12:57:55;11.90;;;2.30;;
74528;SDS011;63009;52.584;5.932;2022-10-22T13:00:22;9.30;;;2.90;;
74528;SDS011;63009;52.584;5.932;2022-10-22T13:02:50;7.60;;;2.20;;
74528;SDS011;63009;52.584;5.932;2022-10-22T13:05:21;9.00;;;2.00;;
74528;SDS011;63009;52.584;5.932;2022-10-22T13:07:50;9.77;;;1.92;;
74528;SDS011;63009;52.584;5.932;2022-10-22T13:10:31;7.60;;;1.85;;
74528;SDS011;63009;52.584;5.932;2022-10-22T13:12:58;6.15;;;1.60;;
74528;SDS011;63009;52.584;5.932;2022-10-22T13:18:02;6.63;;;1.60;;
74528;SDS011;63009;52.584;5.932;2022-10-22T13:20:48;9.25;;;2.78;;
74528;SDS011;63009;52.584;5.932;2022-10-22T13:23:19;9.52;;;2.20;;
74528;SDS011;63009;52.584;5.932;2022-10-22T13:26:03;8.00;;;1.55;;
74528;SDS011;63009;52.584;5.932;2022-10-22T13:28:38;6.75;;;1.58;;
74528;SDS011;63009;52.584;5.932;2022-10-22T13:31:14;18.02;;;2.65;;
74528;SDS011;63009;52.584;5.932;2022-10-22T13:33:42;6.97;;;1.67;;
74528;SDS011;63009;52.584;5.932;2022-10-22T13:36:13;9.43;;;1.20;;
74528;SDS011;63009;52.584;5.932;2022-10-22T13:38:40;10.75;;;1.92;;
74528;SDS011;63009;52.584;5.932;2022-10-22T13:41:25;5.47;;;1.35;;
74528;SDS011;63009;52.584;5.932;2022-10-22T13:43:52;10.20;;;1.80;;
74528;SDS011;63009;52.584;5.932;2022-10-22T13:46:18;10.73;;;1.55;;
74528;SDS011;63009;52.584;5.932;2022-10-22T13:48:45;8.27;;;1.30;;
74528;SDS011;63009;52.584;5.932;2022-10-22T13:51:14;10.00;;;1.88;;
74528;SDS011;63009;52.584;5.932;2022-10-22T13:53:41;11.60;;;1.50;;
74528;SDS011;63009;52.584;5.932;2022-10-22T13:56:10;10.07;;;1.65;;
74528;SDS011;63009;52.584;5.932;2022-10-22T13:58:38;7.72;;;1.38;;
74528;SDS011;63009;52.584;5.932;2022-10-22T14:01:03;11.10;;;1.67;;
74528;SDS011;63009;52.584;5.932;2022-10-22T14:03:32;11.55;;;1.70;;
74528;SDS011;63009;52.584;5.932;2022-10-22T14:05:59;12.60;;;2.13;;
74528;SDS011;63009;52.584;5.932;2022-10-22T14:08:25;11.52;;;1.83;;
74528;SDS011;63009;52.584;5.932;2022-10-22T14:10:51;12.13;;;1.67;;
74528;SDS011;63009;52.584;5.932;2022-10-22T14:13:18;7.78;;;1.83;;
74528;SDS011;63009;52.584;5.932;2022-10-22T14:15:45;11.05;;;2.03;;
74528;SDS011;63009;52.584;5.932;2022-10-22T14:18:18;8.90;;;1.60;;
74528;SDS011;63009;52.584;5.932;2022-10-22T14:20:50;11.50;;;1.88;;
74528;SDS011;63009;52.584;5.932;2022-10-22T14:23:18;10.57;;;1.38;;
74528;SDS011;63009;52.584;5.932;2022-10-22T14:25:45;9.73;;;1.50;;
74528;SDS011;63009;52.584;5.932;2022-10-22T14:28:11;8.57;;;1.58;;
74528;SDS011;63009;52.584;5.932;2022-10-22T14:30:36;9.70;;;1.60;;
74528;SDS011;63009;52.584;5.932;2022-10-22T14:33:08;9.00;;;1.77;;
74528;SDS011;63009;52.584;5.932;2022-10-22T14:35:36;9.90;;;1.65;;
74528;SDS011;63009;52.584;5.932;2022-10-22T14:38:01;10.10;;;1.70;;
74528;SDS011;63009;52.584;5.932;2022-10-22T14:40:26;10.67;;;1.67;;
74528;SDS011;63009;52.584;5.932;2022-10-22T14:42:52;9.80;;;1.40;;
74528;SDS011;63009;52.584;5.932;2022-10-22T14:45:19;12.05;;;1.88;;
74528;SDS011;63009;52.584;5.932;2022-10-22T14:47:46;10.30;;;1.75;;
74528;SDS011;63009;52.584;5.932;2022-10-22T14:50:12;8.20;;;1.60;;
74528;SDS011;63009;52.584;5.932;2022-10-22T14:52:38;10.25;;;1.48;;
74528;SDS011;63009;52.584;5.932;2022-10-22T14:55:05;8.07;;;1.75;;
74528;SDS011;63009;52.584;5.932;2022-10-22T14:57:30;11.55;;;1.77;;
74528;SDS011;63009;52.584;5.932;2022-10-22T14:59:56;17.40;;;1.90;;
74528;SDS011;63009;52.584;5.932;2022-10-22T15:02:21;12.13;;;1.37;;
74528;SDS011;63009;52.584;5.932;2022-10-22T15:04:47;9.35;;;1.83;;
74528;SDS011;63009;52.584;5.932;2022-10-22T15:07:13;10.18;;;1.58;;
74528;SDS011;63009;52.584;5.932;2022-10-22T15:09:39;9.13;;;1.40;;
74528;SDS011;63009;52.584;5.932;2022-10-22T15:12:04;10.70;;;1.50;;
74528;SDS011;63009;52.584;5.932;2022-10-22T15:14:29;9.07;;;1.63;;
74528;SDS011;63009;52.584;5.932;2022-10-22T15:16:55;8.48;;;1.48;;
74528;SDS011;63009;52.584;5.932;2022-10-22T15:19:20;8.57;;;1.60;;
74528;SDS011;63009;52.584;5.932;2022-10-22T15:21:45;11.47;;;1.40;;
74528;SDS011;63009;52.584;5.932;2022-10-22T15:24:11;10.50;;;1.67;;
74528;SDS011;63009;52.584;5.932;2022-10-22T15:26:36;12.37;;;2.40;;
74528;SDS011;63009;52.584;5.932;2022-10-22T15:29:02;9.43;;;1.40;;
74528;SDS011;63009;52.584;5.932;2022-10-22T15:31:42;12.10;;;1.90;;
74528;SDS011;63009;52.584;5.932;2022-10-22T15:34:10;7.40;;;1.60;;
74528;SDS011;63009;52.584;5.932;2022-10-22T15:36:36;10.38;;;1.88;;
74528;SDS011;63009;52.584;5.932;2022-10-22T15:39:05;8.85;;;3.08;;
74528;SDS011;63009;52.584;5.932;2022-10-22T15:41:32;12.10;;;2.58;;
74528;SDS011;63009;52.584;5.932;2022-10-22T15:43:57;10.70;;;1.60;;
74528;SDS011;63009;52.584;5.932;2022-10-22T15:46:23;10.03;;;1.90;;
74528;SDS011;63009;52.584;5.932;2022-10-22T15:48:49;8.82;;;1.83;;
74528;SDS011;63009;52.584;5.932;2022-10-22T15:51:17;10.25;;;1.90;;
74528;SDS011;63009;52.584;5.932;2022-10-22T15:53:43;9.27;;;1.88;;
74528;SDS011;63009;52.584;5.932;2022-10-22T15:56:15;12.50;;;3.25;;
74528;SDS011;63009;52.584;5.932;2022-10-22T15:58:40;11.50;;;2.57;;
74528;SDS011;63009;52.584;5.932;2022-10-22T16:01:06;9.17;;;1.77;;
74528;SDS011;63009;52.584;5.932;2022-10-22T16:03:34;10.05;;;2.05;;
74528;SDS011;63009;52.584;5.932;2022-10-22T16:06:00;12.57;;;2.63;;
74528;SDS011;63009;52.584;5.932;2022-10-22T16:08:26;10.23;;;2.20;;
74528;SDS011;63009;52.584;5.932;2022-10-22T16:10:51;9.90;;;2.38;;
74528;SDS011;63009;52.584;5.932;2022-10-22T16:13:17;10.48;;;2.55;;
74528;SDS011;63009;52.584;5.932;2022-10-22T16:15:44;11.68;;;2.42;;
74528;SDS011;63009;52.584;5.932;2022-10-22T16:18:10;12.67;;;2.30;;
74528;SDS011;63009;52.584;5.932;2022-10-22T16:20:38;11.13;;;2.23;;
74528;SDS011;63009;52.584;5.932;2022-10-22T16:23:04;15.00;;;2.05;;
74528;SDS011;63009;52.584;5.932;2022-10-22T16:25:29;12.23;;;3.10;;
74528;SDS011;63009;52.584;5.932;2022-10-22T16:27:55;11.33;;;2.70;;
74528;SDS011;63009;52.584;5.932;2022-10-22T16:30:20;11.30;;;3.72;;